sensor_id;sensor_type;location;lat;lon;timestamp;pressure;altitude;pressure_sealevel;temperature
13410;BMP180;6775;49.574;11.170;2023-12-04T00:01:34;98007.72;;;-6.29
13410;BMP180;6775;49.574;11.170;2023-12-04T00:04:02;97993.59;;;-6.30
13410;BMP180;6775;49.574;11.170;2023-12-04T00:06:30;97984.34;;;-6.22
13410;BMP180;6775;49.574;11.170;2023-12-04T00:08:58;97981.00;;;-6.19
13410;BMP180;6775;49.574;11.170;2023-12-04T00:11:27;97974.25;;;-6.11
13410;BMP180;6775;49.574;11.170;2023-12-04T00:13:58;97964.22;;;-6.04
13410;BMP180;6775;49.574;11.170;2023-12-04T00:16:26;97967.50;;;-5.99
13410;BMP180;6775;49.574;11.170;2023-12-04T00:18:54;97957.38;;;-5.90
13410;BMP180;6775;49.574;11.170;2023-12-04T00:21:23;97950.69;;;-5.84
13410;BMP180;6775;49.574;11.170;2023-12-04T00:23:51;97951.47;;;-5.82
13410;BMP180;6775;49.574;11.170;2023-12-04T00:26:19;97945.59;;;-5.76
13410;BMP180;6775;49.574;11.170;2023-12-04T00:28:47;97958.91;;;-5.74
13410;BMP180;6775;49.574;11.170;2023-12-04T00:31:17;97955.53;;;-5.73
13410;BMP180;6775;49.574;11.170;2023-12-04T00:33:45;97949.69;;;-5.71
13410;BMP180;6775;49.574;11.170;2023-12-04T00:36:15;97946.41;;;-5.74
13410;BMP180;6775;49.574;11.170;2023-12-04T00:38:43;97943.91;;;-5.77
13410;BMP180;6775;49.574;11.170;2023-12-04T00:41:11;97933.09;;;-5.79
13410;BMP180;6775;49.574;11.170;2023-12-04T00:43:39;97930.50;;;-5.73
13410;BMP180;6775;49.574;11.170;2023-12-04T00:46:07;97927.97;;;-5.70
13410;BMP180;6775;49.574;11.170;2023-12-04T00:48:37;97917.09;;;-5.68
13410;BMP180;6775;49.574;11.170;2023-12-04T00:51:06;97907.06;;;-5.65
13410;BMP180;6775;49.574;11.170;2023-12-04T00:53:34;97906.25;;;-5.65
13410;BMP180;6775;49.574;11.170;2023-12-04T00:56:04;97909.56;;;-5.66
13410;BMP180;6775;49.574;11.170;2023-12-04T00:58:33;97904.53;;;-5.63
13410;BMP180;6775;49.574;11.170;2023-12-04T01:01:01;97902.84;;;-5.61
13410;BMP180;6775;49.574;11.170;2023-12-04T01:03:29;97905.31;;;-5.58
13410;BMP180;6775;49.574;11.170;2023-12-04T01:06:01;97907.81;;;-5.58
13410;BMP180;6775;49.574;11.170;2023-12-04T01:08:29;97905.34;;;-5.61
13410;BMP180;6775;49.574;11.170;2023-12-04T01:10:57;97910.41;;;-5.66
13410;BMP180;6775;49.574;11.170;2023-12-04T01:13:25;97902.94;;;-5.70
13410;BMP180;6775;49.574;11.170;2023-12-04T01:15:54;97901.25;;;-5.71
13410;BMP180;6775;49.574;11.170;2023-12-04T01:18:22;97900.47;;;-5.73
13410;BMP180;6775;49.574;11.170;2023-12-04T01:20:51;97896.25;;;-5.68
13410;BMP180;6775;49.574;11.170;2023-12-04T01:23:20;97892.00;;;-5.63
13410;BMP180;6775;49.574;11.170;2023-12-04T01:25:48;97885.25;;;-5.55
13410;BMP180;6775;49.574;11.170;2023-12-04T01:28:17;97877.75;;;-5.57
13410;BMP180;6775;49.574;11.170;2023-12-04T01:30:45;97878.72;;;-5.67
13410;BMP180;6775;49.574;11.170;2023-12-04T01:33:13;97883.03;;;-5.79
13410;BMP180;6775;49.574;11.170;2023-12-04T01:35:41;97873.97;;;-5.89
13410;BMP180;6775;49.574;11.170;2023-12-04T01:38:09;97862.34;;;-5.96
13410;BMP180;6775;49.574;11.170;2023-12-04T01:40:39;97861.63;;;-6.04
13410;BMP180;6775;49.574;11.170;2023-12-04T01:43:07;97853.25;;;-6.03
13410;BMP180;6775;49.574;11.170;2023-12-04T01:45:35;97850.69;;;-5.99
13410;BMP180;6775;49.574;11.170;2023-12-04T01:48:06;97853.16;;;-5.94
13410;BMP180;6775;49.574;11.170;2023-12-04T01:50:36;97851.47;;;-5.92
13410;BMP180;6775;49.574;11.170;2023-12-04T01:53:05;97846.44;;;-5.89
13410;BMP180;6775;49.574;11.170;2023-12-04T01:55:34;97851.44;;;-5.89
13410;BMP180;6775;49.574;11.170;2023-12-04T01:58:06;97849.81;;;-5.93
13410;BMP180;6775;49.574;11.170;2023-12-04T02:00:35;97844.81;;;-5.93
13410;BMP180;6775;49.574;11.170;2023-12-04T02:03:03;97848.13;;;-5.91
13410;BMP180;6775;49.574;11.170;2023-12-04T02:05:34;97836.47;;;-5.92
13410;BMP180;6775;49.574;11.170;2023-12-04T02:08:03;97834.00;;;-5.97
13410;BMP180;6775;49.574;11.170;2023-12-04T02:10:32;97830.00;;;-6.11
13410;BMP180;6775;49.574;11.170;2023-12-04T02:13:00;97823.44;;;-6.24
13410;BMP180;6775;49.574;11.170;2023-12-04T02:15:29;97826.91;;;-6.37
13410;BMP180;6775;49.574;11.170;2023-12-04T02:17:57;97820.38;;;-6.52
13410;BMP180;6775;49.574;11.170;2023-12-04T02:20:31;97822.09;;;-6.60
13410;BMP180;6775;49.574;11.170;2023-12-04T02:23:01;97817.16;;;-6.66
13410;BMP180;6775;49.574;11.170;2023-12-04T02:25:31;97822.19;;;-6.71
13410;BMP180;6775;49.574;11.170;2023-12-04T02:28:07;97816.34;;;-6.73
13410;BMP180;6775;49.574;11.170;2023-12-04T02:30:37;97818.81;;;-6.62
13410;BMP180;6775;49.574;11.170;2023-12-04T02:33:08;97809.56;;;-6.57
13410;BMP180;6775;49.574;11.170;2023-12-04T02:35:40;97815.38;;;-6.52
13410;BMP180;6775;49.574;11.170;2023-12-04T02:38:10;97812.84;;;-6.49
13410;BMP180;6775;49.574;11.170;2023-12-04T02:40:41;97805.25;;;-6.41
13410;BMP180;6775;49.574;11.170;2023-12-04T02:43:09;97808.50;;;-6.28
13410;BMP180;6775;49.574;11.170;2023-12-04T02:45:37;97804.22;;;-6.20
13410;BMP180;6775;49.574;11.170;2023-12-04T02:48:06;97812.47;;;-6.11
13410;BMP180;6775;49.574;11.170;2023-12-04T02:50:37;97813.88;;;-5.88
13410;BMP180;6775;49.574;11.170;2023-12-04T02:53:05;97811.22;;;-5.76
13410;BMP180;6775;49.574;11.170;2023-12-04T02:55:33;97800.41;;;-5.76
13410;BMP180;6775;49.574;11.170;2023-12-04T02:58:02;97797.91;;;-5.78
13410;BMP180;6775;49.574;11.170;2023-12-04T03:00:31;97792.19;;;-5.89
13410;BMP180;6775;49.574;11.170;2023-12-04T03:02:59;97788.06;;;-5.91
13410;BMP180;6775;49.574;11.170;2023-12-04T03:05:27;97795.59;;;-5.96
13410;BMP180;6775;49.574;11.170;2023-12-04T03:07:55;97789.88;;;-6.05
13410;BMP180;6775;49.574;11.170;2023-12-04T03:10:23;97794.91;;;-6.05
13410;BMP180;6775;49.574;11.170;2023-12-04T03:12:51;97797.41;;;-6.06
13410;BMP180;6775;49.574;11.170;2023-12-04T03:15:21;97789.94;;;-6.09
13410;BMP180;6775;49.574;11.170;2023-12-04T03:17:49;97789.97;;;-6.11
13410;BMP180;6775;49.574;11.170;2023-12-04T03:20:17;97786.66;;;-6.16
13410;BMP180;6775;49.574;11.170;2023-12-04T03:22:46;97783.41;;;-6.21
13410;BMP180;6775;49.574;11.170;2023-12-04T03:25:14;97781.75;;;-6.23
13410;BMP180;6775;49.574;11.170;2023-12-04T03:27:42;97783.41;;;-6.21
13410;BMP180;6775;49.574;11.170;2023-12-04T03:30:11;97779.19;;;-6.19
13410;BMP180;6775;49.574;11.170;2023-12-04T03:32:41;97788.38;;;-6.18
13410;BMP180;6775;49.574;11.170;2023-12-04T03:35:09;97782.63;;;-6.29
13410;BMP180;6775;49.574;11.170;2023-12-04T03:37:37;97785.16;;;-6.30
13410;BMP180;6775;49.574;11.170;2023-12-04T03:40:07;97785.16;;;-6.32
13410;BMP180;6775;49.574;11.170;2023-12-04T03:42:35;97790.19;;;-6.35
13410;BMP180;6775;49.574;11.170;2023-12-04T03:45:05;97786.81;;;-6.29
13410;BMP180;6775;49.574;11.170;2023-12-04T03:47:33;97786.78;;;-6.28
13410;BMP180;6775;49.574;11.170;2023-12-04T03:50:04;97780.94;;;-6.25
13410;BMP180;6775;49.574;11.170;2023-12-04T03:52:32;97791.75;;;-6.25
13410;BMP180;6775;49.574;11.170;2023-12-04T03:55:00;97775.09;;;-6.26
13410;BMP180;6775;49.574;11.170;2023-12-04T03:57:28;97775.97;;;-6.27
13410;BMP180;6775;49.574;11.170;2023-12-04T03:59:57;97771.78;;;-6.26
13410;BMP180;6775;49.574;11.170;2023-12-04T04:02:25;97775.16;;;-6.30
13410;BMP180;6775;49.574;11.170;2023-12-04T04:04:53;97761.88;;;-6.37
13410;BMP180;6775;49.574;11.170;2023-12-04T04:07:24;97761.94;;;-6.46
13410;BMP180;6775;49.574;11.170;2023-12-04T04:09:53;97744.56;;;-6.56
13410;BMP180;6775;49.574;11.170;2023-12-04T04:12:21;97754.59;;;-6.60
13410;BMP180;6775;49.574;11.170;2023-12-04T04:14:50;97745.47;;;-6.64
13410;BMP180;6775;49.574;11.170;2023-12-04T04:17:18;97743.03;;;-6.69
13410;BMP180;6775;49.574;11.170;2023-12-04T04:19:46;97743.88;;;-6.73
13410;BMP180;6775;49.574;11.170;2023-12-04T04:22:14;97747.22;;;-6.72
13410;BMP180;6775;49.574;11.170;2023-12-04T04:24:44;97726.34;;;-6.68
13410;BMP180;6775;49.574;11.170;2023-12-04T04:27:12;97718.88;;;-6.71
13410;BMP180;6775;49.574;11.170;2023-12-04T04:29:41;97714.72;;;-6.71
13410;BMP180;6775;49.574;11.170;2023-12-04T04:32:09;97715.44;;;-6.61
13410;BMP180;6775;49.574;11.170;2023-12-04T04:34:40;97710.38;;;-6.52
13410;BMP180;6775;49.574;11.170;2023-12-04T04:37:09;97716.88;;;-6.38
13410;BMP180;6775;49.574;11.170;2023-12-04T04:39:37;97710.91;;;-6.25
13410;BMP180;6775;49.574;11.170;2023-12-04T04:42:08;97709.97;;;-6.17
13410;BMP180;6775;49.574;11.170;2023-12-04T04:44:36;97706.56;;;-6.13
13410;BMP180;6775;49.574;11.170;2023-12-04T04:47:05;97709.91;;;-6.11
13410;BMP180;6775;49.574;11.170;2023-12-04T04:49:33;97703.13;;;-6.04
13410;BMP180;6775;49.574;11.170;2023-12-04T04:52:01;97707.25;;;-6.00
13410;BMP180;6775;49.574;11.170;2023-12-04T04:54:31;97701.19;;;-5.83
13410;BMP180;6775;49.574;11.170;2023-12-04T04:56:59;97691.81;;;-5.69
13410;BMP180;6775;49.574;11.170;2023-12-04T04:59:29;97689.91;;;-5.52
13410;BMP180;6775;49.574;11.170;2023-12-04T05:01:58;97686.53;;;-5.53
13410;BMP180;6775;49.574;11.170;2023-12-04T05:04:27;97669.13;;;-5.60
13410;BMP180;6775;49.574;11.170;2023-12-04T05:06:55;97664.97;;;-5.61
13410;BMP180;6775;49.574;11.170;2023-12-04T05:09:23;97664.94;;;-5.60
13410;BMP180;6775;49.574;11.170;2023-12-04T05:11:52;97660.75;;;-5.56
13410;BMP180;6775;49.574;11.170;2023-12-04T05:14:20;97666.44;;;-5.49
13410;BMP180;6775;49.574;11.170;2023-12-04T05:16:49;97651.34;;;-5.43
13410;BMP180;6775;49.574;11.170;2023-12-04T05:19:17;97652.13;;;-5.39
13410;BMP180;6775;49.574;11.170;2023-12-04T05:21:46;97647.88;;;-5.36
13410;BMP180;6775;49.574;11.170;2023-12-04T05:24:14;97641.97;;;-5.32
13410;BMP180;6775;49.574;11.170;2023-12-04T05:26:43;97633.59;;;-5.29
13410;BMP180;6775;49.574;11.170;2023-12-04T05:29:11;97641.78;;;-5.20
13410;BMP180;6775;49.574;11.170;2023-12-04T05:31:39;97629.97;;;-5.12
13410;BMP180;6775;49.574;11.170;2023-12-04T05:34:08;97639.88;;;-5.06
13410;BMP180;6775;49.574;11.170;2023-12-04T05:36:37;97634.75;;;-5.00
13410;BMP180;6775;49.574;11.170;2023-12-04T05:39:05;97632.22;;;-4.99
13410;BMP180;6775;49.574;11.170;2023-12-04T05:41:34;97628.88;;;-4.98
13410;BMP180;6775;49.574;11.170;2023-12-04T05:44:02;97619.63;;;-4.94
13410;BMP180;6775;49.574;11.170;2023-12-04T05:46:31;97631.25;;;-4.90
13410;BMP180;6775;49.574;11.170;2023-12-04T05:48:59;97626.19;;;-4.89
13410;BMP180;6775;49.574;11.170;2023-12-04T05:51:28;97619.44;;;-4.84
13410;BMP180;6775;49.574;11.170;2023-12-04T05:54:01;97616.91;;;-4.82
13410;BMP180;6775;49.574;11.170;2023-12-04T05:56:29;97610.06;;;-4.76
13410;BMP180;6775;49.574;11.170;2023-12-04T05:58:57;97610.78;;;-4.68
13410;BMP180;6775;49.574;11.170;2023-12-04T06:01:25;97614.06;;;-4.66
13410;BMP180;6775;49.574;11.170;2023-12-04T06:03:53;97598.13;;;-4.62
13410;BMP180;6775;49.574;11.170;2023-12-04T06:06:21;97605.59;;;-4.60
13410;BMP180;6775;49.574;11.170;2023-12-04T06:08:51;97593.91;;;-4.61
13410;BMP180;6775;49.574;11.170;2023-12-04T06:11:19;97595.53;;;-4.59
13410;BMP180;6775;49.574;11.170;2023-12-04T06:13:48;97593.81;;;-4.55
13410;BMP180;6775;49.574;11.170;2023-12-04T06:16:16;97589.63;;;-4.55
13410;BMP180;6775;49.574;11.170;2023-12-04T06:18:44;97597.03;;;-4.49
13410;BMP180;6775;49.574;11.170;2023-12-04T06:21:13;97593.63;;;-4.47
13410;BMP180;6775;49.574;11.170;2023-12-04T06:23:41;97583.41;;;-4.38
13410;BMP180;6775;49.574;11.170;2023-12-04T06:26:13;97579.13;;;-4.33
13410;BMP180;6775;49.574;11.170;2023-12-04T06:28:42;97569.94;;;-4.34
13410;BMP180;6775;49.574;11.170;2023-12-04T06:31:12;97569.00;;;-4.28
13410;BMP180;6775;49.574;11.170;2023-12-04T06:33:41;97564.06;;;-4.31
13410;BMP180;6775;49.574;11.170;2023-12-04T06:36:13;97580.56;;;-4.23
13410;BMP180;6775;49.574;11.170;2023-12-04T06:38:42;97573.06;;;-4.24
13410;BMP180;6775;49.574;11.170;2023-12-04T06:41:14;97581.31;;;-4.18
13410;BMP180;6775;49.574;11.170;2023-12-04T06:43:43;97575.59;;;-4.24
13410;BMP180;6775;49.574;11.170;2023-12-04T06:46:14;97578.06;;;-4.23
13410;BMP180;6775;49.574;11.170;2023-12-04T06:48:43;97574.78;;;-4.25
13410;BMP180;6775;49.574;11.170;2023-12-04T06:51:12;97579.94;;;-4.31
13410;BMP180;6775;49.574;11.170;2023-12-04T06:53:40;97573.25;;;-4.32
13410;BMP180;6775;49.574;11.170;2023-12-04T06:56:09;97578.28;;;-4.33
13410;BMP180;6775;49.574;11.170;2023-12-04T06:58:39;97570.78;;;-4.33
13410;BMP180;6775;49.574;11.170;2023-12-04T07:01:07;97565.72;;;-4.32
13410;BMP180;6775;49.574;11.170;2023-12-04T07:03:35;97560.66;;;-4.30
13410;BMP180;6775;49.574;11.170;2023-12-04T07:06:05;97553.91;;;-4.27
13410;BMP180;6775;49.574;11.170;2023-12-04T07:08:33;97558.78;;;-4.19
13410;BMP180;6775;49.574;11.170;2023-12-04T07:11:02;97560.31;;;-4.14
13410;BMP180;6775;49.574;11.170;2023-12-04T07:13:30;97565.22;;;-4.08
13410;BMP180;6775;49.574;11.170;2023-12-04T07:15:59;97566.88;;;-4.07
13410;BMP180;6775;49.574;11.170;2023-12-04T07:18:28;97572.63;;;-4.03
13410;BMP180;6775;49.574;11.170;2023-12-04T07:20:56;97569.31;;;-4.04
13410;BMP180;6775;49.574;11.170;2023-12-04T07:23:24;97575.19;;;-4.05
13410;BMP180;6775;49.574;11.170;2023-12-04T07:25:54;97560.16;;;-4.06
13410;BMP180;6775;49.574;11.170;2023-12-04T07:28:22;97566.00;;;-4.06
13410;BMP180;6775;49.574;11.170;2023-12-04T07:30:51;97557.66;;;-4.06
13410;BMP180;6775;49.574;11.170;2023-12-04T07:33:20;97548.38;;;-4.04
13410;BMP180;6775;49.574;11.170;2023-12-04T07:35:49;97555.75;;;-3.97
13410;BMP180;6775;49.574;11.170;2023-12-04T07:38:18;97557.13;;;-3.84
13410;BMP180;6775;49.574;11.170;2023-12-04T07:40:46;97548.50;;;-3.74
13410;BMP180;6775;49.574;11.170;2023-12-04T07:43:14;97526.59;;;-3.68
13410;BMP180;6775;49.574;11.170;2023-12-04T07:45:42;97519.97;;;-3.70
13410;BMP180;6775;49.574;11.170;2023-12-04T07:48:11;97519.09;;;-3.69
13410;BMP180;6775;49.574;11.170;2023-12-04T07:50:41;97518.03;;;-3.59
13410;BMP180;6775;49.574;11.170;2023-12-04T07:53:09;97519.53;;;-3.52
13410;BMP180;6775;49.574;11.170;2023-12-04T07:55:38;97521.63;;;-3.36
13410;BMP180;6775;49.574;11.170;2023-12-04T07:58:07;97522.78;;;-3.17
13410;BMP180;6775;49.574;11.170;2023-12-04T08:00:36;97524.88;;;-3.01
13410;BMP180;6775;49.574;11.170;2023-12-04T08:03:04;97512.69;;;-2.84
13410;BMP180;6775;49.574;11.170;2023-12-04T08:05:32;97526.44;;;-2.67
13410;BMP180;6775;49.574;11.170;2023-12-04T08:08:02;97531.78;;;-2.49
13410;BMP180;6775;49.574;11.170;2023-12-04T08:10:31;97522.03;;;-2.32
13410;BMP180;6775;49.574;11.170;2023-12-04T08:12:59;97519.53;;;-2.04
13410;BMP180;6775;49.574;11.170;2023-12-04T08:15:27;97522.97;;;-1.80
13410;BMP180;6775;49.574;11.170;2023-12-04T08:17:55;97514.66;;;-1.83
13410;BMP180;6775;49.574;11.170;2023-12-04T08:20:24;97519.47;;;-1.50
13410;BMP180;6775;49.574;11.170;2023-12-04T08:23:06;97505.50;;;-0.19
13410;BMP180;6775;49.574;11.170;2023-12-04T08:25:35;97505.66;;;0.82
13410;BMP180;6775;49.574;11.170;2023-12-04T08:28:04;97500.13;;;1.12
13410;BMP180;6775;49.574;11.170;2023-12-04T08:30:32;97506.84;;;1.13
13410;BMP180;6775;49.574;11.170;2023-12-04T08:33:01;97502.66;;;1.32
13410;BMP180;6775;49.574;11.170;2023-12-04T08:35:29;97490.75;;;1.14
13410;BMP180;6775;49.574;11.170;2023-12-04T08:37:57;97494.13;;;1.14
13410;BMP180;6775;49.574;11.170;2023-12-04T08:40:27;97497.00;;;0.87
13410;BMP180;6775;49.574;11.170;2023-12-04T08:42:56;97495.69;;;0.38
13410;BMP180;6775;49.574;11.170;2023-12-04T08:45:24;97497.00;;;0.05
13410;BMP180;6775;49.574;11.170;2023-12-04T08:47:52;97501.34;;;-0.20
13410;BMP180;6775;49.574;11.170;2023-12-04T08:50:20;97500.53;;;-0.43
13410;BMP180;6775;49.574;11.170;2023-12-04T08:52:49;97500.41;;;-0.61
13410;BMP180;6775;49.574;11.170;2023-12-04T08:55:17;97484.19;;;-0.79
13410;BMP180;6775;49.574;11.170;2023-12-04T08:57:47;97491.03;;;-1.05
13410;BMP180;6775;49.574;11.170;2023-12-04T09:00:16;97491.34;;;-1.14
13410;BMP180;6775;49.574;11.170;2023-12-04T09:02:45;97492.34;;;-1.18
13410;BMP180;6775;49.574;11.170;2023-12-04T09:05:23;97496.78;;;-1.26
13410;BMP180;6775;49.574;11.170;2023-12-04T09:07:52;97493.03;;;-1.39
13410;BMP180;6775;49.574;11.170;2023-12-04T09:10:23;97486.75;;;-1.52
13410;BMP180;6775;49.574;11.170;2023-12-04T09:13:12;97496.97;;;-1.56
13410;BMP180;6775;49.574;11.170;2023-12-04T09:15:41;97492.00;;;-1.57
13410;BMP180;6775;49.574;11.170;2023-12-04T09:18:09;97490.06;;;-1.50
13410;BMP180;6775;49.574;11.170;2023-12-04T09:20:37;97496.84;;;-1.52
13410;BMP180;6775;49.574;11.170;2023-12-04T09:23:05;97494.25;;;-1.50
13410;BMP180;6775;49.574;11.170;2023-12-04T09:25:35;97489.09;;;-1.46
13410;BMP180;6775;49.574;11.170;2023-12-04T09:28:04;97495.75;;;-1.45
13410;BMP180;6775;49.574;11.170;2023-12-04T09:30:35;97481.28;;;-1.38
13410;BMP180;6775;49.574;11.170;2023-12-04T09:33:04;97497.00;;;-1.32
13410;BMP180;6775;49.574;11.170;2023-12-04T09:35:33;97496.63;;;-1.20
13410;BMP180;6775;49.574;11.170;2023-12-04T09:38:01;97481.75;;;-1.04
13410;BMP180;6775;49.574;11.170;2023-12-04T09:40:29;97479.66;;;-0.92
13410;BMP180;6775;49.574;11.170;2023-12-04T09:42:58;97471.09;;;-0.88
13410;BMP180;6775;49.574;11.170;2023-12-04T09:45:28;97479.09;;;-0.77
13410;BMP180;6775;49.574;11.170;2023-12-04T09:47:59;97465.22;;;-0.66
13410;BMP180;6775;49.574;11.170;2023-12-04T09:50:28;97471.00;;;-0.62
13410;BMP180;6775;49.574;11.170;2023-12-04T09:52:59;97457.38;;;-0.58
13410;BMP180;6775;49.574;11.170;2023-12-04T09:55:28;97449.81;;;-0.58
13410;BMP180;6775;49.574;11.170;2023-12-04T09:57:58;97443.97;;;-0.60
13410;BMP180;6775;49.574;11.170;2023-12-04T10:00:27;97441.69;;;-0.66
13410;BMP180;6775;49.574;11.170;2023-12-04T10:02:57;97453.56;;;-0.68
13410;BMP180;6775;49.574;11.170;2023-12-04T10:05:26;97449.72;;;-0.78
13410;BMP180;6775;49.574;11.170;2023-12-04T10:07:55;97452.47;;;-0.84
13410;BMP180;6775;49.574;11.170;2023-12-04T10:10:23;97455.28;;;-0.70
13410;BMP180;6775;49.574;11.170;2023-12-04T10:12:51;97454.59;;;-0.74
13410;BMP180;6775;49.574;11.170;2023-12-04T10:15:19;97443.66;;;-0.74
13410;BMP180;6775;49.574;11.170;2023-12-04T10:17:47;97434.88;;;-0.64
13410;BMP180;6775;49.574;11.170;2023-12-04T10:20:17;97436.34;;;-0.59
13410;BMP180;6775;49.574;11.170;2023-12-04T10:22:54;97432.22;;;-0.60
13410;BMP180;6775;49.574;11.170;2023-12-04T10:25:24;97427.75;;;-0.53
13410;BMP180;6775;49.574;11.170;2023-12-04T10:27:53;97418.72;;;-0.38
13410;BMP180;6775;49.574;11.170;2023-12-04T10:30:26;97405.66;;;-0.27
13410;BMP180;6775;49.574;11.170;2023-12-04T10:32:56;97402.78;;;0.03
13410;BMP180;6775;49.574;11.170;2023-12-04T10:35:31;97392.91;;;0.17
13410;BMP180;6775;49.574;11.170;2023-12-04T10:38:00;97383.13;;;0.29
13410;BMP180;6775;49.574;11.170;2023-12-04T10:40:29;97360.13;;;0.15
13410;BMP180;6775;49.574;11.170;2023-12-04T10:43:15;97349.69;;;0.23
13410;BMP180;6775;49.574;11.170;2023-12-04T10:45:46;97339.38;;;0.09
13410;BMP180;6775;49.574;11.170;2023-12-04T10:48:17;97342.56;;;-0.07
13410;BMP180;6775;49.574;11.170;2023-12-04T10:50:49;97341.28;;;-0.17
13410;BMP180;6775;49.574;11.170;2023-12-04T10:53:17;97325.69;;;-0.27
13410;BMP180;6775;49.574;11.170;2023-12-04T10:55:47;97314.00;;;-0.29
13410;BMP180;6775;49.574;11.170;2023-12-04T10:58:18;97330.69;;;-0.25
13410;BMP180;6775;49.574;11.170;2023-12-04T11:00:48;97321.31;;;-0.23
13410;BMP180;6775;49.574;11.170;2023-12-04T11:03:21;97312.22;;;-0.27
13410;BMP180;6775;49.574;11.170;2023-12-04T11:05:57;97297.00;;;-0.26
13410;BMP180;6775;49.574;11.170;2023-12-04T11:08:29;97300.19;;;-0.21
13410;BMP180;6775;49.574;11.170;2023-12-04T11:11:02;97296.66;;;-0.17
13410;BMP180;6775;49.574;11.170;2023-12-04T11:13:34;97302.00;;;-0.04
13410;BMP180;6775;49.574;11.170;2023-12-04T11:16:09;97302.84;;;0.16
13410;BMP180;6775;49.574;11.170;2023-12-04T11:18:44;97293.41;;;0.39
13410;BMP180;6775;49.574;11.170;2023-12-04T11:21:20;97286.78;;;0.55
13410;BMP180;6775;49.574;11.170;2023-12-04T11:23:49;97283.16;;;0.42
13410;BMP180;6775;49.574;11.170;2023-12-04T11:26:18;97272.25;;;0.22
13410;BMP180;6775;49.574;11.170;2023-12-04T11:28:48;97270.38;;;0.07
13410;BMP180;6775;49.574;11.170;2023-12-04T11:31:17;97261.16;;;-0.14
13410;BMP180;6775;49.574;11.170;2023-12-04T11:33:45;97253.22;;;-0.25
13410;BMP180;6775;49.574;11.170;2023-12-04T11:36:14;97246.63;;;-0.29
13410;BMP180;6775;49.574;11.170;2023-12-04T11:38:46;97250.81;;;-0.28
13410;BMP180;6775;49.574;11.170;2023-12-04T11:41:18;97248.59;;;-0.35
13410;BMP180;6775;49.574;11.170;2023-12-04T11:43:53;97249.97;;;-0.48
13410;BMP180;6775;49.574;11.170;2023-12-04T11:46:25;97238.94;;;-0.46
13410;BMP180;6775;49.574;11.170;2023-12-04T11:48:56;97234.03;;;-0.49
13410;BMP180;6775;49.574;11.170;2023-12-04T11:51:46;97246.13;;;-0.56
13410;BMP180;6775;49.574;11.170;2023-12-04T11:54:18;97251.41;;;-0.62
13410;BMP180;6775;49.574;11.170;2023-12-04T11:56:59;97245.78;;;-0.69
13410;BMP180;6775;49.574;11.170;2023-12-04T11:59:27;97237.59;;;-0.74
13410;BMP180;6775;49.574;11.170;2023-12-04T12:01:56;97233.78;;;-0.84
13410;BMP180;6775;49.574;11.170;2023-12-04T12:04:26;97226.66;;;-0.94
13410;BMP180;6775;49.574;11.170;2023-12-04T12:06:58;97236.31;;;-1.05
13410;BMP180;6775;49.574;11.170;2023-12-04T12:09:32;97246.41;;;-1.05
13410;BMP180;6775;49.574;11.170;2023-12-04T12:12:02;97243.34;;;-0.92
13410;BMP180;6775;49.574;11.170;2023-12-04T12:14:31;97240.75;;;-0.90
13410;BMP180;6775;49.574;11.170;2023-12-04T12:17:00;97230.72;;;-0.92
13410;BMP180;6775;49.574;11.170;2023-12-04T12:19:28;97235.31;;;-1.01
13410;BMP180;6775;49.574;11.170;2023-12-04T12:21:57;97239.88;;;-1.10
13410;BMP180;6775;49.574;11.170;2023-12-04T12:24:25;97237.06;;;-1.03
13410;BMP180;6775;49.574;11.170;2023-12-04T12:26:55;97250.03;;;-0.91
13410;BMP180;6775;49.574;11.170;2023-12-04T12:29:24;97247.94;;;-1.01
13410;BMP180;6775;49.574;11.170;2023-12-04T12:31:52;97233.66;;;-1.02
13410;BMP180;6775;49.574;11.170;2023-12-04T12:34:20;97238.53;;;-0.98
13410;BMP180;6775;49.574;11.170;2023-12-04T12:36:48;97237.47;;;-0.92
13410;BMP180;6775;49.574;11.170;2023-12-04T12:39:17;97228.78;;;-0.85
13410;BMP180;6775;49.574;11.170;2023-12-04T12:41:47;97238.88;;;-0.85
13410;BMP180;6775;49.574;11.170;2023-12-04T12:44:17;97231.38;;;-0.87
13410;BMP180;6775;49.574;11.170;2023-12-04T12:46:48;97222.81;;;-0.83
13410;BMP180;6775;49.574;11.170;2023-12-04T12:49:18;97214.94;;;-0.75
13410;BMP180;6775;49.574;11.170;2023-12-04T12:52:05;97223.97;;;-0.70
13410;BMP180;6775;49.574;11.170;2023-12-04T12:54:37;97211.50;;;-0.74
13410;BMP180;6775;49.574;11.170;2023-12-04T12:57:05;97206.47;;;-0.74
13410;BMP180;6775;49.574;11.170;2023-12-04T12:59:35;97207.50;;;-0.78
13410;BMP180;6775;49.574;11.170;2023-12-04T13:02:05;97206.53;;;-0.76
13410;BMP180;6775;49.574;11.170;2023-12-04T13:04:35;97204.13;;;-0.79
13410;BMP180;6775;49.574;11.170;2023-12-04T13:07:04;97200.00;;;-0.80
13410;BMP180;6775;49.574;11.170;2023-12-04T13:09:33;97196.63;;;-0.80
13410;BMP180;6775;49.574;11.170;2023-12-04T13:12:05;97184.91;;;-0.81
13410;BMP180;6775;49.574;11.170;2023-12-04T13:14:35;97168.63;;;-0.94
13410;BMP180;6775;49.574;11.170;2023-12-04T13:17:04;97168.75;;;-0.97
13410;BMP180;6775;49.574;11.170;2023-12-04T13:19:33;97180.47;;;-0.96
13410;BMP180;6775;49.574;11.170;2023-12-04T13:22:03;97170.72;;;-0.84
13410;BMP180;6775;49.574;11.170;2023-12-04T13:24:32;97180.00;;;-0.84
13410;BMP180;6775;49.574;11.170;2023-12-04T13:27:00;97167.25;;;-0.81
13410;BMP180;6775;49.574;11.170;2023-12-04T13:29:28;97176.84;;;-0.69
13410;BMP180;6775;49.574;11.170;2023-12-04T13:31:59;97174.09;;;-0.85
13410;BMP180;6775;49.574;11.170;2023-12-04T13:34:27;97167.06;;;-0.77
13410;BMP180;6775;49.574;11.170;2023-12-04T13:36:56;97181.00;;;-0.68
13410;BMP180;6775;49.574;11.170;2023-12-04T13:39:24;97166.69;;;-0.68
13410;BMP180;6775;49.574;11.170;2023-12-04T13:42:05;97171.97;;;-0.74
13410;BMP180;6775;49.574;11.170;2023-12-04T13:44:54;97169.59;;;-0.77
13410;BMP180;6775;49.574;11.170;2023-12-04T13:47:23;97161.13;;;-0.76
13410;BMP180;6775;49.574;11.170;2023-12-04T13:49:51;97164.59;;;-0.78
13410;BMP180;6775;49.574;11.170;2023-12-04T13:52:19;97159.44;;;-0.75
13410;BMP180;6775;49.574;11.170;2023-12-04T13:54:50;97141.91;;;-0.78
13410;BMP180;6775;49.574;11.170;2023-12-04T13:57:20;97149.59;;;-0.81
13410;BMP180;6775;49.574;11.170;2023-12-04T13:59:52;97143.66;;;-0.80
13410;BMP180;6775;49.574;11.170;2023-12-04T14:02:20;97146.16;;;-0.80
13410;BMP180;6775;49.574;11.170;2023-12-04T14:04:50;97136.34;;;-0.86
13410;BMP180;6775;49.574;11.170;2023-12-04T14:07:19;97129.75;;;-0.90
13410;BMP180;6775;49.574;11.170;2023-12-04T14:09:48;97112.88;;;-0.88
13410;BMP180;6775;49.574;11.170;2023-12-04T14:12:16;97116.84;;;-1.02
13410;BMP180;6775;49.574;11.170;2023-12-04T14:14:44;97100.72;;;-0.99
13410;BMP180;6775;49.574;11.170;2023-12-04T14:17:12;97094.75;;;-0.98
13410;BMP180;6775;49.574;11.170;2023-12-04T14:19:40;97096.97;;;-0.90
13410;BMP180;6775;49.574;11.170;2023-12-04T14:22:10;97094.56;;;-0.93